Frisco, CO

12:17 AM MST on February 11, 2016 (GMT -0700)
Copper Mountain | | Change Station
CLOSE
Current Station
Airport
Location: Copper Mountain,
Elevation: 12073 ft
Nearby Weather Stations

Elev 12073 ft 39.48 °N, 106.15 °W | Updated 21 minutes ago

Clear
Clear
27 °F
Feels Like 16 °F
N
13
Wind Variable Wind from West

Today
High -- | Low -- °F
--% Chance of Precip.
Yesterday
High -- | Low -- °F
Precip. -- in
Pressure 30.45 in
Visibility 10.0 miles
Clouds Clear
Windchill 16 °F
Dew Point 0 °F
Humidity 31%
Rainfall 0.02 in
Snow Depth Not available.
7:01 AM 5:36 PM
Waxing Crescent, 10% visible
METAR KCCU 110656Z AUTO 28011KT 10SM CLR M03/M18 A3045 RMK AO2
Pressure 30.45 in
Visibility 10.0 miles
Clouds Clear
Windchill 16 °F
Dew Point 0 °F
Humidity 31%
Rainfall 0.02 in
Snow Depth Not available.
7:01 AM 5:36 PM
Waxing Crescent, 10% visible
METAR KCCU 110656Z AUTO 28011KT 10SM CLR M03/M18 A3045 RMK AO2

10-Day Weather Forecast

Almanac

Astronomy

Feb. 11, 2016 Rise Set
Actual Time
Civil Twilight
Nautical Twilight
Astronomical Twilight
Moon
Length of Visible Light
Length of Day
Tomorrow will be .
, % of the Moon is Illuminated

Today's Extremes

State Highs State Lows

Community

WunderPhotos

Upload Photos

1,892,030 photos uploaded!

WunderBlog® & News

Nearby

Air Quality

  Air Quality AQ Index Pollutant
Not available.

Snow Depth

Station Depth Elevation

Earthquake Activity

City Distance Mag. Time & Date
Minimum magnitude displayed is 2.5.

Coastal Water Temperatures

Place Temperature

Stations

Nearby Weather Stations

Station Location Temp. Windchill Dew Point Humidity Wind Precip. Elev Updated Type
                   

Watches & Warnings

There are currently no watches in effect.